createdAt,value
2022-10-09T00:01:58.655Z,12.50
2022-10-09T00:04:29.957Z,10.20
2022-10-09T00:07:01.243Z,10.70
2022-10-09T00:09:32.493Z,12.10
2022-10-09T00:12:03.705Z,10.20
2022-10-09T00:14:35.293Z,12.50
2022-10-09T00:17:06.969Z,12.30
2022-10-09T00:19:38.239Z,10.80
2022-10-09T00:22:09.775Z,14.70
2022-10-09T00:24:41.628Z,10.10
2022-10-09T00:27:13.072Z,12.50
2022-10-09T00:29:44.227Z,9.00
2022-10-09T00:32:15.467Z,11.10
2022-10-09T00:34:46.966Z,12.50
2022-10-09T00:37:20.195Z,9.60
2022-10-09T00:39:51.453Z,11.00
2022-10-09T00:42:22.995Z,8.90
2022-10-09T00:45:00.294Z,12.80
2022-10-09T00:47:37.584Z,11.10
2022-10-09T00:50:15.491Z,10.90
2022-10-09T00:52:47.406Z,11.50
2022-10-09T00:55:19.213Z,9.10
2022-10-09T00:57:51.491Z,11.00
2022-10-09T01:00:23.273Z,8.00
2022-10-09T01:02:54.884Z,11.70
2022-10-09T01:05:34.437Z,8.70
2022-10-09T01:08:11.874Z,8.10
2022-10-09T01:10:51.699Z,8.90
2022-10-09T01:13:29.533Z,12.00
2022-10-09T01:16:05.060Z,8.80
2022-10-09T01:18:45.138Z,14.50
2022-10-09T01:21:21.269Z,9.50
2022-10-09T01:24:09.045Z,9.80
2022-10-09T01:27:01.737Z,10.70
2022-10-09T01:29:37.801Z,11.10
2022-10-09T01:32:11.350Z,10.80
2022-10-09T01:37:44.161Z,9.10
2022-10-09T01:40:18.238Z,11.50
2022-10-09T01:42:49.807Z,11.40
2022-10-09T01:45:21.625Z,11.40
2022-10-09T01:47:53.128Z,8.90
2022-10-09T01:50:28.535Z,10.60
2022-10-09T01:53:03.071Z,9.00
2022-10-09T01:55:41.424Z,9.40
2022-10-09T01:58:20.750Z,12.80
2022-10-09T02:00:58.407Z,9.10
2022-10-09T02:03:32.898Z,7.50
2022-10-09T02:06:05.169Z,7.80
2022-10-09T02:08:38.902Z,6.70
2022-10-09T02:11:11.656Z,9.40
2022-10-09T02:13:43.811Z,8.30
2022-10-09T02:16:20.269Z,10.00
2022-10-09T02:18:59.606Z,6.70
2022-10-09T02:21:40.151Z,8.60
2022-10-09T02:24:15.564Z,7.10
2022-10-09T02:26:46.911Z,8.80
2022-10-09T02:29:18.910Z,6.60
2022-10-09T02:31:50.360Z,6.50
2022-10-09T02:34:22.668Z,10.10
2022-10-09T02:36:53.949Z,6.20
2022-10-09T02:39:25.342Z,10.30
2022-10-09T02:41:56.711Z,10.50
2022-10-09T02:44:28.460Z,7.60
2022-10-09T02:47:00.210Z,7.20
2022-10-09T02:49:31.397Z,9.60
2022-10-09T02:52:02.763Z,9.10
2022-10-09T02:54:34.089Z,7.80
2022-10-09T02:57:05.432Z,6.90
2022-10-09T02:59:37.126Z,8.30
2022-10-09T03:02:08.315Z,7.70
2022-10-09T03:04:39.702Z,8.10
2022-10-09T03:07:11.589Z,7.90
2022-10-09T03:09:43.168Z,9.40
2022-10-09T03:12:16.361Z,7.90
2022-10-09T03:14:47.557Z,9.00
2022-10-09T03:17:18.809Z,7.00
2022-10-09T03:19:52.950Z,8.40
2022-10-09T03:22:30.259Z,12.40
2022-10-09T03:25:01.707Z,8.30
2022-10-09T03:27:33.441Z,9.40
2022-10-09T03:30:05.194Z,8.00
2022-10-09T03:32:36.582Z,10.50
2022-10-09T03:35:10.858Z,9.00
2022-10-09T03:37:42.099Z,12.30
2022-10-09T03:40:15.148Z,9.80
2022-10-09T03:42:46.649Z,8.80
2022-10-09T03:45:18.583Z,9.30
2022-10-09T03:47:49.860Z,8.40
2022-10-09T03:50:21.079Z,9.30
2022-10-09T03:52:52.704Z,8.70
2022-10-09T03:55:24.297Z,7.80
2022-10-09T03:57:55.517Z,10.00
2022-10-09T04:00:27.148Z,9.40
2022-10-09T04:02:58.554Z,9.30
2022-10-09T04:05:30.660Z,10.10
2022-10-09T04:08:02.195Z,9.50
2022-10-09T04:10:33.482Z,10.00
2022-10-09T04:13:05.043Z,9.90
2022-10-09T04:15:37.035Z,11.20
2022-10-09T04:18:09.193Z,10.70
2022-10-09T04:20:40.399Z,8.30
2022-10-09T04:23:11.602Z,8.10
2022-10-09T04:25:43.180Z,8.20
2022-10-09T04:28:14.486Z,9.20
2022-10-09T04:30:45.948Z,6.50
2022-10-09T04:33:17.268Z,8.50
2022-10-09T04:35:51.728Z,7.70
2022-10-09T04:38:23.939Z,6.90
2022-10-09T04:41:02.472Z,6.60
2022-10-09T04:43:34.639Z,7.60
2022-10-09T04:46:09.861Z,7.60
2022-10-09T04:48:45.786Z,6.80
2022-10-09T04:51:18.296Z,7.10
2022-10-09T04:53:50.222Z,10.30
2022-10-09T04:56:24.278Z,7.40
2022-10-09T04:58:56.067Z,6.20
2022-10-09T05:01:33.110Z,7.80
2022-10-09T05:04:08.765Z,6.60
2022-10-09T05:06:40.120Z,8.00
2022-10-09T05:09:11.335Z,7.10
2022-10-09T05:11:43.054Z,7.60
2022-10-09T05:14:14.740Z,6.80
2022-10-09T05:17:08.769Z,7.20
2022-10-09T05:19:37.391Z,8.90
2022-10-09T05:22:08.738Z,8.60
2022-10-09T05:24:40.073Z,7.70
2022-10-09T05:27:11.302Z,7.00
2022-10-09T05:29:42.755Z,7.50
2022-10-09T05:32:15.015Z,9.40
2022-10-09T05:34:46.465Z,7.80
2022-10-09T05:37:17.724Z,9.30
2022-10-09T05:39:49.398Z,8.10
2022-10-09T05:42:20.687Z,9.20
2022-10-09T05:44:52.118Z,8.20
2022-10-09T05:47:23.264Z,7.00
2022-10-09T05:49:54.597Z,9.30
2022-10-09T05:52:25.926Z,10.80
2022-10-09T05:54:57.523Z,6.10
2022-10-09T05:57:29.598Z,11.60
2022-10-09T06:00:01.181Z,9.90
2022-10-09T06:02:32.479Z,8.70
2022-10-09T06:05:04.045Z,11.30
2022-10-09T06:07:35.459Z,9.90
2022-10-09T06:10:07.444Z,10.50
2022-10-09T06:12:38.644Z,8.70
2022-10-09T06:15:11.940Z,9.30
2022-10-09T06:17:43.143Z,10.40
2022-10-09T06:20:15.740Z,9.60
2022-10-09T06:22:47.214Z,11.70
2022-10-09T06:25:18.917Z,11.40
2022-10-09T06:27:50.298Z,9.00
2022-10-09T06:30:21.605Z,11.60
2022-10-09T06:32:52.880Z,10.60
2022-10-09T06:35:24.491Z,10.80
2022-10-09T06:37:55.693Z,6.60
2022-10-09T06:40:27.077Z,7.70
2022-10-09T06:42:58.281Z,9.30
2022-10-09T06:45:29.893Z,8.00
2022-10-09T06:48:01.093Z,8.80
2022-10-09T06:50:32.416Z,10.20
2022-10-09T06:53:03.868Z,11.20
2022-10-09T06:55:35.282Z,11.00
2022-10-09T06:58:06.619Z,9.10
2022-10-09T07:00:38.210Z,10.40
2022-10-09T07:03:09.660Z,10.50
2022-10-09T07:05:41.341Z,10.30
2022-10-09T07:08:12.615Z,9.60
2022-10-09T07:10:43.724Z,11.00
2022-10-09T07:13:15.190Z,9.50
2022-10-09T07:15:49.255Z,10.70
2022-10-09T07:18:20.466Z,9.80
2022-10-09T07:20:51.731Z,9.10
2022-10-09T07:23:23.961Z,10.30
2022-10-09T07:25:55.435Z,10.90
2022-10-09T07:28:28.832Z,11.00
2022-10-09T07:31:03.716Z,10.00
2022-10-09T07:33:35.131Z,10.70
2022-10-09T07:36:08.052Z,13.90
2022-10-09T07:38:39.441Z,12.50
2022-10-09T07:41:12.835Z,11.60
2022-10-09T07:43:44.744Z,11.70
2022-10-09T07:46:18.434Z,10.60
2022-10-09T07:48:51.074Z,10.50
2022-10-09T07:51:24.245Z,8.30
2022-10-09T07:53:57.557Z,11.70
2022-10-09T07:56:31.309Z,11.30
2022-10-09T07:59:04.800Z,10.30
2022-10-09T08:01:37.326Z,10.30
2022-10-09T08:04:09.655Z,10.40
2022-10-09T08:06:41.148Z,8.70
2022-10-09T08:09:12.447Z,11.00
2022-10-09T08:11:44.756Z,10.10
2022-10-09T08:14:19.150Z,9.10
2022-10-09T08:16:51.083Z,10.70
2022-10-09T08:19:22.341Z,12.00
2022-10-09T08:21:54.180Z,13.30
2022-10-09T08:24:25.764Z,10.80
2022-10-09T08:26:57.014Z,9.30
2022-10-09T08:29:28.240Z,10.50
2022-10-09T08:31:59.626Z,11.30
2022-10-09T08:34:31.418Z,11.20
2022-10-09T08:37:02.628Z,10.60
2022-10-09T08:39:33.790Z,9.10
2022-10-09T08:42:06.410Z,11.90
2022-10-09T08:44:42.542Z,10.90
2022-10-09T08:47:21.972Z,12.80
2022-10-09T08:49:57.923Z,10.30
2022-10-09T08:52:36.986Z,11.60
2022-10-09T08:55:16.106Z,12.40
2022-10-09T08:57:51.041Z,10.40
2022-10-09T09:00:24.481Z,18.80
2022-10-09T09:03:28.181Z,12.50
2022-10-09T09:06:04.914Z,14.30
2022-10-09T09:08:46.602Z,11.50
2022-10-09T09:11:29.286Z,11.00
2022-10-09T09:14:13.125Z,8.40
2022-10-09T09:16:51.642Z,9.70
2022-10-09T09:19:44.442Z,9.50
2022-10-09T09:22:17.412Z,10.80
2022-10-09T09:24:52.895Z,8.50
2022-10-09T09:27:29.127Z,10.20
2022-10-09T09:30:04.601Z,9.70
2022-10-09T09:32:36.900Z,10.00
2022-10-09T09:35:20.744Z,10.90
2022-10-09T09:37:52.263Z,9.80
2022-10-09T09:40:36.057Z,8.50
2022-10-09T09:43:18.237Z,11.50
2022-10-09T09:45:50.780Z,17.30
2022-10-09T09:48:29.372Z,12.10
2022-10-09T09:51:23.623Z,12.40
2022-10-09T09:53:55.489Z,20.40
2022-10-09T09:57:06.993Z,11.00
2022-10-09T09:59:37.602Z,13.10
2022-10-09T10:02:16.985Z,17.20
2022-10-09T10:04:58.959Z,11.50
2022-10-09T10:07:35.510Z,9.20
2022-10-09T10:10:15.628Z,13.30
2022-10-09T10:12:49.479Z,23.70
2022-10-09T10:15:25.086Z,27.80
2022-10-09T10:18:03.679Z,40.40
2022-10-09T10:20:44.165Z,27.80
2022-10-09T10:23:26.634Z,53.20
2022-10-09T10:26:02.201Z,28.70
2022-10-09T10:28:37.646Z,18.20
2022-10-09T10:31:17.055Z,21.50
2022-10-09T10:33:52.889Z,17.10
2022-10-09T10:36:25.492Z,17.60
2022-10-09T10:39:03.935Z,19.30
2022-10-09T10:41:39.233Z,20.20
2022-10-09T10:44:20.549Z,20.60
2022-10-09T10:46:56.482Z,22.00
2022-10-09T10:49:33.515Z,19.20
2022-10-09T10:52:20.028Z,15.40
2022-10-09T10:54:58.574Z,15.00
2022-10-09T10:57:47.303Z,14.70
2022-10-09T11:00:19.276Z,36.70
2022-10-09T11:03:08.042Z,13.20
2022-10-09T11:05:51.961Z,19.40
2022-10-09T11:08:45.982Z,8.70
2022-10-09T11:11:24.138Z,39.90
2022-10-09T11:14:06.880Z,55.80
2022-10-09T11:16:50.506Z,76.50
2022-10-09T11:19:44.465Z,23.30
2022-10-09T11:22:29.750Z,20.70
2022-10-09T11:25:11.356Z,15.80
2022-10-09T11:27:49.306Z,12.50
2022-10-09T11:30:22.018Z,8.20
2022-10-09T11:33:01.478Z,8.30
2022-10-09T11:35:38.334Z,8.80
2022-10-09T11:38:24.420Z,8.00
2022-10-09T11:40:56.788Z,6.80
2022-10-09T11:43:48.447Z,10.40
2022-10-09T11:46:29.698Z,6.50
2022-10-09T11:49:12.040Z,6.40
2022-10-09T11:51:49.685Z,6.70
2022-10-09T11:54:24.347Z,8.10
2022-10-09T11:59:34.214Z,6.80
2022-10-09T12:02:26.659Z,7.30
2022-10-09T12:04:58.359Z,9.00
2022-10-09T12:07:36.378Z,6.70
2022-10-09T12:10:10.800Z,7.00
2022-10-09T12:12:43.644Z,7.90
2022-10-09T12:15:29.442Z,7.40
2022-10-09T12:18:01.105Z,8.00
2022-10-09T12:20:32.655Z,8.30
2022-10-09T12:25:57.440Z,9.50
2022-10-09T12:28:39.959Z,8.90
2022-10-09T12:31:20.101Z,18.40
2022-10-09T12:33:56.393Z,13.90
2022-10-09T12:36:29.476Z,13.90
2022-10-09T12:39:13.456Z,8.30
2022-10-09T12:41:47.467Z,12.10
2022-10-09T12:44:30.388Z,10.80
2022-10-09T12:47:06.490Z,8.70
2022-10-09T12:49:38.832Z,8.70
2022-10-09T12:52:17.358Z,31.50
2022-10-09T12:54:48.652Z,19.80
2022-10-09T12:57:24.036Z,12.20
2022-10-09T12:59:59.417Z,9.30
2022-10-09T13:02:32.004Z,9.90
2022-10-09T13:05:03.828Z,12.30
2022-10-09T13:07:35.130Z,12.60
2022-10-09T13:10:17.260Z,16.80
2022-10-09T13:12:55.739Z,69.10
2022-10-09T13:15:37.177Z,18.20
2022-10-09T13:18:24.029Z,12.60
2022-10-09T13:21:04.276Z,8.80
2022-10-09T13:23:37.126Z,8.00
2022-10-09T13:26:09.264Z,7.10
2022-10-09T13:28:41.623Z,8.20
2022-10-09T13:31:13.587Z,8.10
2022-10-09T13:33:44.871Z,7.20
2022-10-09T13:36:16.520Z,7.90
2022-10-09T13:38:48.904Z,5.90
2022-10-09T13:41:24.505Z,8.90
2022-10-09T13:43:56.482Z,6.90
2022-10-09T13:46:27.992Z,7.70
2022-10-09T13:48:59.258Z,4.80
2022-10-09T13:51:32.246Z,6.20
2022-10-09T13:54:03.589Z,7.20
2022-10-09T13:56:35.197Z,8.00
2022-10-09T13:59:06.992Z,8.00
2022-10-09T14:01:38.312Z,7.90
2022-10-09T14:04:09.591Z,8.10
2022-10-09T14:06:41.176Z,7.00
2022-10-09T14:09:12.739Z,8.60
2022-10-09T14:11:44.952Z,7.50
2022-10-09T14:14:16.451Z,6.80
2022-10-09T14:16:47.913Z,7.00
2022-10-09T14:19:19.208Z,5.50
2022-10-09T14:21:50.423Z,8.10
2022-10-09T14:24:21.957Z,7.90
2022-10-09T14:26:53.485Z,7.50
2022-10-09T14:29:24.685Z,8.60
2022-10-09T14:31:55.966Z,9.30
2022-10-09T14:34:27.164Z,10.40
2022-10-09T14:36:58.394Z,6.10
2022-10-09T14:39:29.775Z,7.40
2022-10-09T14:42:00.941Z,6.20
2022-10-09T14:44:32.039Z,9.50
2022-10-09T14:47:03.350Z,11.70
2022-10-09T14:49:34.678Z,8.00
2022-10-09T14:52:05.815Z,8.00
2022-10-09T14:54:37.181Z,7.10
2022-10-09T14:57:08.299Z,12.50
2022-10-09T14:59:39.670Z,9.80
2022-10-09T15:02:17.900Z,11.40
2022-10-09T15:04:49.208Z,14.30
2022-10-09T15:07:20.610Z,24.40
2022-10-09T15:09:51.939Z,18.30
2022-10-09T15:12:23.239Z,12.70
2022-10-09T15:14:54.481Z,15.00
2022-10-09T15:17:25.892Z,17.00
2022-10-09T15:19:57.274Z,13.10
2022-10-09T15:22:28.742Z,12.30
2022-10-09T15:25:00.007Z,13.90
2022-10-09T15:27:31.163Z,15.60
2022-10-09T15:30:02.495Z,12.70
2022-10-09T15:32:33.667Z,13.30
2022-10-09T15:35:05.024Z,10.50
2022-10-09T15:37:36.340Z,9.40
2022-10-09T15:40:08.425Z,12.30
2022-10-09T15:42:41.751Z,12.10
2022-10-09T15:45:13.708Z,9.90
2022-10-09T15:47:51.963Z,16.00
2022-10-09T15:50:23.255Z,11.40
2022-10-09T15:52:56.692Z,13.20
2022-10-09T15:55:27.855Z,11.10
2022-10-09T15:57:59.353Z,11.90
2022-10-09T16:00:30.662Z,16.00
2022-10-09T16:03:01.914Z,12.60
2022-10-09T16:05:37.399Z,13.60
2022-10-09T16:08:09.061Z,13.10
2022-10-09T16:10:48.663Z,13.10
2022-10-09T16:13:20.860Z,13.90
2022-10-09T16:15:52.272Z,14.40
2022-10-09T16:18:25.239Z,15.20
2022-10-09T16:20:56.503Z,14.40
2022-10-09T16:23:27.737Z,13.60
2022-10-09T16:26:03.491Z,16.70
2022-10-09T16:28:35.799Z,16.80
2022-10-09T16:31:07.372Z,21.00
2022-10-09T16:33:38.790Z,23.30
2022-10-09T16:36:42.777Z,27.90
2022-10-09T16:39:14.238Z,33.10
2022-10-09T16:41:45.491Z,37.40
2022-10-09T16:44:17.357Z,32.20
2022-10-09T16:46:48.566Z,38.20
2022-10-09T16:49:22.863Z,37.60
2022-10-09T16:51:56.368Z,39.80
2022-10-09T16:54:28.104Z,39.10
2022-10-09T16:56:59.406Z,45.90
2022-10-09T16:59:33.693Z,56.30
2022-10-09T17:02:05.012Z,53.00
2022-10-09T17:04:39.648Z,41.30
2022-10-09T17:09:48.401Z,38.80
2022-10-09T17:12:20.524Z,46.90
2022-10-09T17:14:56.108Z,49.70
2022-10-09T17:17:27.848Z,55.00
2022-10-09T17:19:59.300Z,51.30
2022-10-09T17:22:30.627Z,58.50
2022-10-09T17:25:02.696Z,52.90
2022-10-09T17:27:34.421Z,48.70
2022-10-09T17:30:07.235Z,43.40
2022-10-09T17:32:39.004Z,50.00
2022-10-09T17:35:12.267Z,51.80
2022-10-09T17:37:45.386Z,55.80
2022-10-09T17:40:17.226Z,58.00
2022-10-09T17:42:49.577Z,71.60
2022-10-09T17:45:21.133Z,60.20
2022-10-09T17:47:54.369Z,59.90
2022-10-09T17:50:27.604Z,68.70
2022-10-09T17:52:59.377Z,70.80
2022-10-09T17:55:31.806Z,69.80
2022-10-09T17:58:03.209Z,126.00
2022-10-09T18:00:34.695Z,79.20
2022-10-09T18:03:06.094Z,242.90
2022-10-09T18:05:43.786Z,83.80
2022-10-09T18:08:16.165Z,77.40
2022-10-09T18:10:47.898Z,64.50
2022-10-09T18:13:19.868Z,62.70
2022-10-09T18:15:51.912Z,59.40
2022-10-09T18:18:24.114Z,62.30
2022-10-09T18:20:56.247Z,59.10
2022-10-09T18:23:27.581Z,67.00
2022-10-09T18:25:59.595Z,60.50
2022-10-09T18:28:32.111Z,66.10
2022-10-09T18:31:05.311Z,58.40
2022-10-09T18:33:38.380Z,63.50
2022-10-09T18:36:14.813Z,63.80
2022-10-09T18:38:47.018Z,62.30
2022-10-09T18:41:19.606Z,75.80
2022-10-09T18:43:53.916Z,94.10
2022-10-09T18:46:29.187Z,102.60
2022-10-09T18:49:02.116Z,59.90
2022-10-09T18:51:34.154Z,59.50
2022-10-09T18:54:08.535Z,57.80
2022-10-09T18:56:41.468Z,51.30
2022-10-09T18:59:17.030Z,43.60
2022-10-09T19:01:49.349Z,42.20
2022-10-09T19:04:20.912Z,44.70
2022-10-09T19:06:52.798Z,49.10
2022-10-09T19:09:24.242Z,49.00
2022-10-09T19:11:56.364Z,47.60
2022-10-09T19:14:27.579Z,45.80
2022-10-09T19:16:58.807Z,34.80
2022-10-09T19:19:30.545Z,26.90
2022-10-09T19:22:01.764Z,34.40
2022-10-09T19:24:34.453Z,32.70
2022-10-09T19:27:05.897Z,22.80
2022-10-09T19:29:37.800Z,23.00
2022-10-09T19:32:09.526Z,26.60
2022-10-09T19:34:41.158Z,27.00
2022-10-09T19:37:13.135Z,27.80
2022-10-09T19:39:49.116Z,26.10
2022-10-09T19:42:20.906Z,27.60
2022-10-09T19:44:52.278Z,27.80
2022-10-09T19:47:24.410Z,25.30
2022-10-09T19:49:55.699Z,27.00
2022-10-09T19:52:27.123Z,29.50
2022-10-09T19:54:58.490Z,28.50
2022-10-09T19:57:29.758Z,34.90
2022-10-09T20:00:01.051Z,33.30
2022-10-09T20:02:35.489Z,35.60
2022-10-09T20:05:07.779Z,39.80
2022-10-09T20:07:39.030Z,32.20
2022-10-09T20:10:11.900Z,29.60
2022-10-09T20:12:45.933Z,29.30
2022-10-09T20:15:17.702Z,24.30
2022-10-09T20:17:49.439Z,29.50
2022-10-09T20:20:20.866Z,28.60
2022-10-09T20:22:52.530Z,32.40
2022-10-09T20:25:24.673Z,27.80
2022-10-09T20:27:55.992Z,28.60
2022-10-09T20:30:27.361Z,31.70
2022-10-09T20:32:59.629Z,24.10
2022-10-09T20:35:31.482Z,26.10
2022-10-09T20:38:04.065Z,25.60
2022-10-09T20:40:37.400Z,23.60
2022-10-09T20:43:08.838Z,24.70
2022-10-09T20:45:44.644Z,30.10
2022-10-09T20:48:16.281Z,29.30
2022-10-09T20:50:47.867Z,35.10
2022-10-09T20:53:19.303Z,22.00
2022-10-09T20:55:50.505Z,26.50
2022-10-09T20:58:21.766Z,26.70
2022-10-09T21:00:53.124Z,26.90
2022-10-09T21:03:24.704Z,29.50
2022-10-09T21:05:56.066Z,28.10
2022-10-09T21:08:27.377Z,32.30
2022-10-09T21:10:58.681Z,32.30
2022-10-09T21:13:29.882Z,31.10
2022-10-09T21:16:01.033Z,25.40
2022-10-09T21:18:32.454Z,33.50
2022-10-09T21:21:07.283Z,27.90
2022-10-09T21:26:12.408Z,33.20
2022-10-09T21:28:44.079Z,29.60
2022-10-09T21:31:17.299Z,26.10
2022-10-09T21:33:48.761Z,26.40
2022-10-09T21:36:29.822Z,24.40
2022-10-09T21:39:01.167Z,28.20
2022-10-09T21:41:33.225Z,29.10
2022-10-09T21:44:05.078Z,31.90
2022-10-09T21:46:37.884Z,32.00
2022-10-09T21:49:09.638Z,24.80
2022-10-09T21:51:40.868Z,29.40
2022-10-09T21:54:12.052Z,26.60
2022-10-09T21:56:43.492Z,26.60
2022-10-09T21:59:15.280Z,26.50
2022-10-09T22:01:46.680Z,23.70
2022-10-09T22:04:17.999Z,29.10
2022-10-09T22:06:49.142Z,25.30
2022-10-09T22:09:20.517Z,25.80
2022-10-09T22:11:51.760Z,27.50
2022-10-09T22:14:23.105Z,23.30
2022-10-09T22:16:54.601Z,22.50
2022-10-09T22:19:26.526Z,21.10
2022-10-09T22:21:57.797Z,22.40
2022-10-09T22:24:29.398Z,21.10
2022-10-09T22:27:00.812Z,23.30
2022-10-09T22:29:32.089Z,26.10
2022-10-09T22:32:03.282Z,25.60
2022-10-09T22:34:34.544Z,26.00
2022-10-09T22:37:05.861Z,26.40
2022-10-09T22:39:37.000Z,25.10
2022-10-09T22:42:08.266Z,26.90
2022-10-09T22:44:39.550Z,24.60
2022-10-09T22:47:10.698Z,24.50
2022-10-09T22:49:41.937Z,20.30
2022-10-09T22:52:13.233Z,26.80
2022-10-09T22:54:45.014Z,27.10
2022-10-09T22:57:16.227Z,21.30
2022-10-09T22:59:47.637Z,27.40
2022-10-09T23:02:19.138Z,19.90
2022-10-09T23:04:50.473Z,24.60
2022-10-09T23:07:21.710Z,25.70
2022-10-09T23:09:52.956Z,20.90
2022-10-09T23:12:24.221Z,24.80
2022-10-09T23:14:56.190Z,22.40
2022-10-09T23:17:27.631Z,20.80
2022-10-09T23:19:58.759Z,26.20
2022-10-09T23:22:29.917Z,24.30
2022-10-09T23:25:01.225Z,22.60
2022-10-09T23:27:32.599Z,21.00
2022-10-09T23:30:03.981Z,21.50
2022-10-09T23:32:35.315Z,21.70
2022-10-09T23:35:07.488Z,25.90
2022-10-09T23:37:38.639Z,22.30
2022-10-09T23:40:11.133Z,23.00
2022-10-09T23:42:42.395Z,21.20
2022-10-09T23:45:14.165Z,20.20
2022-10-09T23:47:45.437Z,18.90
2022-10-09T23:50:16.672Z,21.20
2022-10-09T23:52:48.139Z,21.80
2022-10-09T23:55:19.563Z,21.20
2022-10-09T23:57:51.761Z,20.20
